Time;durP1;ratioP1;P1;durP2;ratioP2;P2;SDS_P1;SDS_P2;PMS_P1;PMS_P2;Temp;Humidity;BMP_temperature;BMP_pressure;BME280_temperature;BME280_humidity;BME280_pressure;Samples;Min_cycle;Max_cycle;Signal;HPM_P1;HPM_P2
2024/01/28 00:01:53;;;;;;;5.23;1.97;;;;;;;3.28;68.72;99572.09;6164694;28;20237;-62
2024/01/28 00:04:55;;;;;;;6.07;1.83;;;;;;;3.37;68.18;99584.41;6166320;28;20200;-60
2024/01/28 00:07:58;;;;;;;6.73;2.00;;;;;;;3.27;68.95;99579.19;6165418;28;20553;-63
2024/01/28 00:11:00;;;;;;;4.53;2.30;;;;;;;3.08;69.30;99563.50;6161927;28;20279;-62
2024/01/28 00:14:03;;;;;;;6.60;3.07;;;;;;;3.12;69.77;99583.31;6153468;28;20220;-63
2024/01/28 00:17:05;;;;;;;5.87;1.60;;;;;;;2.88;71.11;99591.72;6158488;28;20198;-63
2024/01/28 00:20:11;;;;;;;4.67;1.63;;;;;;;3.21;69.25;99590.31;6164945;28;20197;-62
2024/01/28 00:23:13;;;;;;;6.03;1.77;;;;;;;2.79;72.05;99592.59;6161102;28;20371;-63
2024/01/28 00:26:16;;;;;;;6.83;1.77;;;;;;;2.82;71.58;99600.22;6164634;28;20197;-62
2024/01/28 00:29:19;;;;;;;6.77;2.03;;;;;;;2.92;71.05;99597.53;6167066;28;20692;-62
2024/01/28 00:32:21;;;;;;;5.37;1.67;;;;;;;2.52;72.80;99596.84;6142143;28;20453;-62
2024/01/28 00:35:24;;;;;;;5.50;1.73;;;;;;;2.52;73.67;99611.81;6160147;28;20576;-63
2024/01/28 00:38:31;;;;;;;5.40;2.13;;;;;;;2.29;75.00;99620.00;6159984;28;20344;-62
2024/01/28 00:41:33;;;;;;;8.80;2.57;;;;;;;2.08;76.17;99605.38;6163390;28;20592;-62
2024/01/28 00:44:39;;;;;;;5.30;1.80;;;;;;;1.74;78.54;99611.88;6156886;28;20302;-61
2024/01/28 00:47:43;;;;;;;4.03;2.33;;;;;;;1.53;79.98;99619.91;6164140;28;20266;-62
2024/01/28 00:50:45;;;;;;;7.53;2.07;;;;;;;1.39;81.80;99625.53;6167851;28;20199;-62
2024/01/28 00:53:47;;;;;;;5.57;1.83;;;;;;;1.18;84.14;99622.16;6162820;28;20215;-62
2024/01/28 00:56:50;;;;;;;4.27;1.60;;;;;;;1.06;84.64;99628.47;6161462;28;20197;-62
2024/01/28 00:59:53;;;;;;;3.37;1.73;;;;;;;1.43;82.63;99628.69;6163783;28;20278;-62
2024/01/28 01:02:56;;;;;;;3.80;1.60;;;;;;;1.24;83.82;99632.97;6164256;28;20195;-62
2024/01/28 01:05:58;;;;;;;7.60;2.30;;;;;;;0.83;85.87;99617.34;6163279;28;20657;-62
2024/01/28 01:09:01;;;;;;;3.73;1.73;;;;;;;0.74;86.87;99629.47;6160359;28;20565;-61
2024/01/28 01:12:04;;;;;;;5.53;1.90;;;;;;;0.69;87.63;99635.09;6159786;28;20211;-62
2024/01/28 01:15:07;;;;;;;5.33;2.03;;;;;;;0.74;86.86;99639.97;6163275;28;20686;-61
2024/01/28 01:18:10;;;;;;;4.23;1.57;;;;;;;0.51;88.10;99639.28;6151090;28;20205;-62
2024/01/28 01:21:12;;;;;;;3.50;1.60;;;;;;;0.31;89.87;99637.50;6159663;28;20198;-60
2024/01/28 01:24:14;;;;;;;5.80;1.90;;;;;;;0.14;91.11;99634.47;6164434;28;20202;-62
2024/01/28 01:27:17;;;;;;;3.77;1.60;;;;;;;0.20;91.54;99638.41;6164576;28;20234;-62
2024/01/28 01:30:20;;;;;;;4.97;1.73;;;;;;;0.19;91.01;99629.69;6162975;28;20210;-61
2024/01/28 01:33:22;;;;;;;8.03;2.33;;;;;;;0.06;91.57;99636.09;6153814;28;20312;-62
2024/01/28 01:36:24;;;;;;;4.13;1.40;;;;;;;-0.02;91.57;99634.09;6157201;28;20196;-62
2024/01/28 01:39:27;;;;;;;5.63;1.63;;;;;;;0.09;90.45;99638.44;6158273;28;20218;-62
2024/01/28 01:42:29;;;;;;;6.83;1.60;;;;;;;-0.30;91.26;99640.72;6154032;28;20693;-61
2024/01/28 01:45:31;;;;;;;3.67;1.43;;;;;;;-0.42;92.93;99646.97;6153010;28;20205;-61
2024/01/28 01:48:34;;;;;;;6.00;1.67;;;;;;;-0.57;94.40;99642.00;6161478;28;20268;-60
2024/01/28 01:51:36;;;;;;;5.57;2.03;;;;;;;-0.57;94.14;99644.63;6162992;28;20256;-60
2024/01/28 01:54:39;;;;;;;6.33;2.07;;;;;;;-0.65;94.61;99643.56;6167222;28;20244;-61
2024/01/28 01:57:42;;;;;;;6.00;1.93;;;;;;;-0.73;94.87;99641.56;6158844;28;20203;-61
2024/01/28 02:00:45;;;;;;;4.73;1.70;;;;;;;-0.86;95.59;99633.84;6159468;28;20770;-61
2024/01/28 02:03:48;;;;;;;4.87;1.90;;;;;;;-0.80;96.06;99635.16;6162026;28;20268;-60
2024/01/28 02:06:50;;;;;;;4.77;1.60;;;;;;;-0.86;97.23;99630.41;6165266;28;20560;-60
2024/01/28 02:09:52;;;;;;;3.50;1.83;;;;;;;-0.84;98.09;99624.13;6152987;28;20206;-61
2024/01/28 02:12:54;;;;;;;5.43;1.80;;;;;;;-0.78;98.26;99638.50;6164455;28;20206;-61
2024/01/28 02:15:56;;;;;;;6.50;1.70;;;;;;;-0.99;99.46;99604.38;6165913;28;20216;-62
2024/01/28 02:18:59;;;;;;;6.13;1.80;;;;;;;-0.85;99.48;99626.84;6158134;28;20665;-61
2024/01/28 02:22:01;;;;;;;7.77;2.10;;;;;;;-0.80;98.76;99616.84;6164499;28;20193;-60
2024/01/28 02:25:04;;;;;;;7.60;1.70;;;;;;;-0.81;98.84;99613.38;6159966;28;20298;-61
2024/01/28 02:28:06;;;;;;;6.47;1.97;;;;;;;-0.91;99.70;99622.91;6158334;28;20277;-60
2024/01/28 02:31:08;;;;;;;5.73;1.70;;;;;;;-0.94;100.00;99638.00;6153977;28;20242;-60
2024/01/28 02:34:10;;;;;;;3.33;1.70;;;;;;;-0.89;100.00;99630.63;6160683;28;20214;-59
2024/01/28 02:37:13;;;;;;;4.20;1.43;;;;;;;-1.05;100.00;99631.00;6156050;28;20198;-61
2024/01/28 02:40:15;;;;;;;3.40;1.67;;;;;;;-0.94;100.00;99632.78;6157484;28;20248;-59
2024/01/28 02:43:19;;;;;;;5.40;1.83;;;;;;;-1.13;100.00;99634.25;6165978;28;20563;-61
2024/01/28 02:46:21;;;;;;;8.03;2.00;;;;;;;-1.09;100.00;99635.63;6157837;28;20647;-59
2024/01/28 02:49:24;;;;;;;4.50;2.17;;;;;;;-1.20;100.00;99637.44;6162837;28;20292;-60
2024/01/28 02:52:26;;;;;;;7.73;1.93;;;;;;;-1.00;100.00;99633.28;6151829;28;20224;-61
2024/01/28 02:55:28;;;;;;;5.73;1.73;;;;;;;-0.98;100.00;99634.00;6159773;28;20193;-60
2024/01/28 02:58:30;;;;;;;4.33;1.67;;;;;;;-1.05;100.00;99631.00;6163580;28;20202;-60
2024/01/28 03:01:33;;;;;;;5.63;2.03;;;;;;;-0.83;100.00;99635.41;6158432;28;20312;-60
2024/01/28 03:04:36;;;;;;;7.70;2.40;;;;;;;-1.15;100.00;99630.06;6174781;23;20178;-91
2024/01/28 03:07:38;;;;;;;7.30;1.53;;;;;;;-1.62;100.00;99582.28;6151569;28;20236;-94
2024/01/28 03:10:43;;;;;;;6.97;1.70;;;;;;;-1.06;100.00;99635.41;6135755;28;20558;-93
2024/01/28 03:13:45;;;;;;;7.77;2.33;;;;;;;-1.42;100.00;99628.63;6143611;28;20856;-93
2024/01/28 03:16:48;;;;;;;7.20;1.80;;;;;;;-1.09;100.00;99626.97;6153161;28;20208;-93
2024/01/28 03:19:51;;;;;;;6.83;2.40;;;;;;;-1.34;100.00;99646.34;6131113;28;20285;-93
2024/01/28 03:22:53;;;;;;;6.73;1.80;;;;;;;-1.46;100.00;99618.53;6160717;28;20205;-93
2024/01/28 03:25:55;;;;;;;1.83;1.40;;;;;;;-1.48;100.00;99613.41;6148678;28;20285;-93
2024/01/28 03:28:57;;;;;;;2.80;1.63;;;;;;;-2.73;100.00;99411.44;6155933;28;20205;-93
2024/01/28 03:32:00;;;;;;;5.50;1.73;;;;;;;-1.40;100.00;99621.50;6146186;28;20206;-94
2024/01/28 03:35:02;;;;;;;6.67;1.80;;;;;;;-2.65;100.00;99445.63;6153893;28;20218;-92
2024/01/28 03:38:06;;;;;;;3.00;1.53;;;;;;;-1.85;100.00;99600.53;6147129;28;20587;-93
2024/01/28 03:41:08;;;;;;;6.17;2.30;;;;;;;-2.27;100.00;99528.03;6163670;28;20270;-93
2024/01/28 03:44:11;;;;;;;4.27;1.73;;;;;;;-2.49;100.00;99532.25;6161005;28;20643;-92
2024/01/28 03:47:13;;;;;;;5.87;1.83;;;;;;;-2.08;100.00;99630.97;6153000;28;20202;-92
2024/01/28 03:50:19;;;;;;;6.10;1.70;;;;;;;-2.85;100.00;99457.53;6132182;28;20253;-93
2024/01/28 03:53:21;;;;;;;6.77;1.80;;;;;;;-3.28;100.00;99441.56;6133414;28;20794;-92
2024/01/28 03:56:24;;;;;;;3.57;2.17;;;;;;;-2.38;100.00;99581.84;6141820;28;20187;-93
2024/01/28 03:59:27;;;;;;;5.00;1.90;;;;;;;-3.93;100.00;99365.44;6165086;28;20674;-91
2024/01/28 04:02:30;;;;;;;6.30;1.87;;;;;;;-2.64;100.00;99546.41;6148649;28;20199;-91
2024/01/28 04:05:32;;;;;;;2.90;1.50;;;;;;;-2.69;100.00;99493.75;6140354;28;20238;-92
2024/01/28 04:08:35;;;;;;;5.50;1.67;;;;;;;-2.83;100.00;99488.72;6162921;28;20217;-92
2024/01/28 04:11:38;;;;;;;6.73;1.80;;;;;;;-2.14;100.00;99628.00;6149058;28;21075;-92
2024/01/28 04:14:40;;;;;;;6.43;2.40;;;;;;;-2.20;100.00;99636.28;6145781;28;20216;-92
2024/01/28 04:17:42;;;;;;;5.93;1.77;;;;;;;-2.41;100.00;99579.50;6164725;28;20703;-91
2024/01/28 04:20:44;;;;;;;3.77;1.77;;;;;;;-3.73;100.00;99418.69;6144774;28;20231;-92
2024/01/28 04:23:47;;;;;;;4.77;2.23;;;;;;;-2.92;100.00;99561.44;6137729;28;20229;-91
2024/01/28 04:26:49;;;;;;;5.53;1.80;;;;;;;-2.19;100.00;99679.72;6152092;28;20213;-91
2024/01/28 04:29:51;;;;;;;5.63;2.10;;;;;;;-2.34;100.00;99661.59;6159158;28;20726;-91
2024/01/28 04:32:53;;;;;;;6.47;1.87;;;;;;;-2.99;100.00;99528.94;6148185;28;20288;-91
2024/01/28 04:35:56;;;;;;;5.40;1.90;;;;;;;-2.37;100.00;99663.59;6155264;28;20198;-91
2024/01/28 04:38:59;;;;;;;6.23;2.13;;;;;;;-3.61;100.00;99474.28;6123573;28;20438;-92
2024/01/28 04:42:02;;;;;;;4.97;2.33;;;;;;;-3.90;100.00;99447.69;6146806;28;20697;-92
2024/01/28 04:45:04;;;;;;;5.33;1.93;;;;;;;-3.22;100.00;99553.19;6157066;28;20624;-91
2024/01/28 04:48:08;;;;;;;5.97;1.90;;;;;;;-3.02;100.00;99568.25;6153667;28;20664;-91
2024/01/28 04:51:12;;;;;;;3.27;2.17;;;;;;;-2.27;100.00;99667.19;6138017;28;20204;-92
2024/01/28 04:54:17;;;;;;;3.83;1.77;;;;;;;-2.67;100.00;99643.97;6144415;28;20214;-92
2024/01/28 04:57:20;;;;;;;5.60;2.33;;;;;;;-3.37;100.00;99558.53;6141071;28;20202;-92
2024/01/28 05:00:22;;;;;;;3.90;2.07;;;;;;;-2.96;100.00;99642.59;6137600;28;20221;-93
2024/01/28 05:03:24;;;;;;;3.23;1.90;;;;;;;-2.79;100.00;99612.72;6160441;28;20557;-92
2024/01/28 05:06:34;;;;;;;3.90;2.20;;;;;;;-4.14;100.00;99429.38;6165675;28;20245;-92
2024/01/28 05:09:37;;;;;;;5.93;2.13;;;;;;;-3.61;100.00;99502.94;6149223;28;20552;-92
2024/01/28 05:12:39;;;;;;;5.73;1.80;;;;;;;-3.81;100.00;99467.03;6163222;28;20226;-91
2024/01/28 05:15:42;;;;;;;5.63;1.87;;;;;;;-2.75;100.00;99633.28;6173850;28;20220;-92
2024/01/28 05:18:45;;;;;;;3.60;2.00;;;;;;;-2.46;100.00;99669.50;6180368;28;20262;-91
2024/01/28 05:21:51;;;;;;;5.23;2.00;;;;;;;-2.43;100.00;99687.53;6189128;28;20202;-90
2024/01/28 05:24:54;;;;;;;5.90;1.77;;;;;;;-2.83;100.00;99639.97;6147270;28;20202;-91
2024/01/28 05:27:56;;;;;;;5.27;2.00;;;;;;;-2.46;100.00;99674.72;6140071;28;20523;-91
2024/01/28 05:30:59;;;;;;;5.23;1.83;;;;;;;-2.69;100.00;99629.38;6161797;28;20310;-91
2024/01/28 05:34:02;;;;;;;8.70;2.60;;;;;;;-2.48;100.00;99658.31;6156013;28;20214;-93
2024/01/28 05:37:04;;;;;;;8.70;2.70;;;;;;;-3.91;100.00;99417.38;6162606;28;20199;-90
2024/01/28 05:40:08;;;;;;;9.73;2.43;;;;;;;-3.39;100.00;99516.13;6148091;28;20285;-92
2024/01/28 05:43:16;;;;;;;3.93;2.27;;;;;;;-4.02;100.00;99438.97;6165296;28;20226;-92
2024/01/28 05:46:21;;;;;;;7.53;2.10;;;;;;;-2.27;100.00;99695.91;6169899;23;20707;-59
2024/01/28 05:49:23;;;;;;;6.23;2.20;;;;;;;-2.44;100.00;99691.09;6130394;29;20567;-59
2024/01/28 05:52:26;;;;;;;4.30;2.10;;;;;;;-2.38;100.00;99699.28;6136818;28;20206;-59
2024/01/28 05:55:29;;;;;;;3.43;1.77;;;;;;;-2.42;100.00;99703.06;6140600;28;20213;-59
2024/01/28 05:58:31;;;;;;;6.93;1.87;;;;;;;-2.50;100.00;99696.75;6129049;29;20243;-59
2024/01/28 06:01:33;;;;;;;7.53;2.20;;;;;;;-2.54;100.00;99700.50;6137057;29;20218;-59
2024/01/28 06:04:35;;;;;;;2.83;1.80;;;;;;;-2.54;100.00;99696.13;6144597;28;20202;-59
2024/01/28 06:07:38;;;;;;;7.03;2.30;;;;;;;-2.56;100.00;99699.78;6140732;28;20686;-59
2024/01/28 06:10:40;;;;;;;9.67;1.87;;;;;;;-2.32;100.00;99705.84;6139072;29;20682;-58
2024/01/28 06:13:42;;;;;;;7.27;2.20;;;;;;;-2.41;100.00;99701.31;6133522;29;20607;-59
2024/01/28 06:16:44;;;;;;;5.47;2.20;;;;;;;-2.17;100.00;99701.31;6141071;29;20211;-59
2024/01/28 06:19:46;;;;;;;6.33;2.00;;;;;;;-2.50;100.00;99657.59;6131404;28;20206;-61
2024/01/28 06:22:49;;;;;;;9.40;2.17;;;;;;;-2.49;100.00;99688.81;6132720;28;20206;-60
2024/01/28 06:25:51;;;;;;;5.13;2.20;;;;;;;-2.43;100.00;99688.34;6141542;29;20194;-61
2024/01/28 06:28:54;;;;;;;8.60;2.37;;;;;;;-2.60;100.00;99693.97;6134000;28;20671;-60
2024/01/28 06:31:56;;;;;;;4.03;2.03;;;;;;;-2.66;100.00;99700.44;6136419;28;20713;-60
2024/01/28 06:34:59;;;;;;;5.13;2.03;;;;;;;-2.71;100.00;99704.28;6137081;28;20316;-61
2024/01/28 06:38:01;;;;;;;6.43;2.47;;;;;;;-2.92;100.00;99680.56;6140056;28;20206;-59
2024/01/28 06:41:03;;;;;;;6.07;2.20;;;;;;;-2.80;100.00;99699.75;6139818;28;20195;-61
2024/01/28 06:44:05;;;;;;;5.53;2.10;;;;;;;-2.89;100.00;99706.44;6138336;28;20205;-60
2024/01/28 06:47:07;;;;;;;5.60;2.23;;;;;;;-2.89;100.00;99709.88;6164526;28;20705;-59
2024/01/28 06:50:09;;;;;;;3.57;1.73;;;;;;;-2.96;100.00;99700.78;6161909;28;20202;-60
2024/01/28 06:53:12;;;;;;;8.37;2.17;;;;;;;-2.92;100.00;99707.47;6154453;28;20661;-59
2024/01/28 06:56:14;;;;;;;7.40;2.20;;;;;;;-2.89;100.00;99707.25;6159663;28;20210;-60
2024/01/28 06:59:18;;;;;;;3.33;1.90;;;;;;;-2.90;100.00;99697.78;6161054;28;20733;-60
2024/01/28 07:02:24;;;;;;;3.97;1.90;;;;;;;-2.92;100.00;99701.41;6154089;28;20725;-60
2024/01/28 07:05:28;;;;;;;5.27;2.00;;;;;;;-2.96;100.00;99699.94;6163380;28;20197;-60
2024/01/28 07:08:30;;;;;;;3.87;2.00;;;;;;;-3.00;100.00;99703.75;6159872;28;20951;-58
2024/01/28 07:11:32;;;;;;;6.70;1.90;;;;;;;-2.98;100.00;99717.50;6158433;28;20499;-60
2024/01/28 07:14:34;;;;;;;3.90;1.90;;;;;;;-2.97;100.00;99714.75;6163989;28;20207;-59
2024/01/28 07:17:37;;;;;;;3.67;1.90;;;;;;;-2.88;100.00;99721.97;6158306;28;20680;-58
2024/01/28 07:20:39;;;;;;;7.30;1.93;;;;;;;-2.89;100.00;99732.50;6159766;28;20272;-59
2024/01/28 07:23:41;;;;;;;3.70;1.90;;;;;;;-2.96;100.00;99721.66;6160321;28;20561;-60
2024/01/28 07:26:43;;;;;;;8.97;2.83;;;;;;;-2.99;100.00;99711.44;6151411;28;20194;-60
2024/01/28 07:29:45;;;;;;;4.93;1.90;;;;;;;-2.86;100.00;99732.28;6151729;28;20575;-60
2024/01/28 07:32:47;;;;;;;9.70;2.30;;;;;;;-2.89;100.00;99728.13;6160099;28;20206;-58
2024/01/28 07:35:49;;;;;;;5.57;2.23;;;;;;;-2.82;100.00;99727.69;6137945;28;20210;-60
2024/01/28 07:38:52;;;;;;;5.60;2.13;;;;;;;-2.71;100.00;99736.47;6154246;28;21080;-61
2024/01/28 07:41:54;;;;;;;5.37;2.40;;;;;;;-2.76;100.00;99732.47;6164508;28;20595;-61
2024/01/28 07:44:56;;;;;;;7.90;2.50;;;;;;;-2.73;100.00;99740.94;6162812;28;20243;-59
2024/01/28 07:47:58;;;;;;;5.87;2.60;;;;;;;-2.63;100.00;99738.50;6160429;28;20206;-60
2024/01/28 07:51:01;;;;;;;5.70;2.23;;;;;;;-2.35;100.00;99746.06;6158773;28;20204;-59
2024/01/28 07:54:03;;;;;;;3.50;1.87;;;;;;;-2.48;100.00;99747.03;6162542;28;20213;-58
2024/01/28 07:57:05;;;;;;;12.13;3.00;;;;;;;-2.56;100.00;99745.00;6153260;28;20197;-59
2024/01/28 08:00:10;;;;;;;9.13;2.73;;;;;;;-2.24;100.00;99754.91;6163753;28;20695;-60
2024/01/28 08:03:15;;;;;;;7.87;3.00;;;;;;;-2.26;100.00;99749.81;6167491;28;20217;-61
2024/01/28 08:06:17;;;;;;;5.90;2.50;;;;;;;-2.16;100.00;99742.16;6155403;28;20183;-59
2024/01/28 08:09:19;;;;;;;9.23;3.23;;;;;;;-2.03;100.00;99742.09;6165925;28;20198;-60
2024/01/28 08:12:21;;;;;;;7.87;2.27;;;;;;;-1.82;100.00;99738.75;6155365;28;20252;-61
2024/01/28 08:15:23;;;;;;;6.83;2.70;;;;;;;-1.82;100.00;99745.78;6159949;28;20218;-61
2024/01/28 08:18:26;;;;;;;5.20;2.57;;;;;;;-1.61;100.00;99745.97;6160694;28;20670;-60
2024/01/28 08:21:28;;;;;;;9.73;3.13;;;;;;;-1.71;100.00;99745.81;6163135;28;20198;-61
2024/01/28 08:24:30;;;;;;;7.80;2.60;;;;;;;-1.59;100.00;99749.28;6167293;28;20208;-60
2024/01/28 08:27:33;;;;;;;6.20;2.50;;;;;;;-1.64;100.00;99746.19;6163262;28;20775;-62
2024/01/28 08:30:35;;;;;;;8.07;2.50;;;;;;;-1.45;100.00;99758.72;6156635;28;20208;-59
2024/01/28 08:33:37;;;;;;;6.73;2.47;;;;;;;-1.30;100.00;99758.41;6166242;28;20624;-57
2024/01/28 08:36:40;;;;;;;7.53;2.93;;;;;;;-1.06;100.00;99763.56;6159625;28;20572;-59
2024/01/28 08:39:42;;;;;;;4.70;2.43;;;;;;;-0.97;100.00;99758.59;6161670;28;20686;-59
2024/01/28 08:42:45;;;;;;;5.53;2.63;;;;;;;-0.94;100.00;99756.56;6162504;28;20210;-60
2024/01/28 08:45:47;;;;;;;7.47;2.60;;;;;;;-0.73;100.00;99750.66;6162486;28;20313;-58
2024/01/28 08:48:49;;;;;;;9.87;3.80;;;;;;;-0.46;100.00;99739.81;6156310;28;20186;-60
2024/01/28 08:51:51;;;;;;;7.60;2.63;;;;;;;-0.24;100.00;99741.56;6162685;28;20210;-60
2024/01/28 08:54:53;;;;;;;4.80;2.40;;;;;;;0.23;100.00;99751.66;6166749;28;20492;-60
2024/01/28 08:57:56;;;;;;;7.57;3.23;;;;;;;1.13;97.97;99742.47;6163010;28;20621;-60
2024/01/28 09:00:58;;;;;;;8.87;2.83;;;;;;;1.50;96.32;99740.16;6151283;28;20201;-59
2024/01/28 09:04:00;;;;;;;7.40;2.00;;;;;;;1.71;98.94;99756.66;6163361;28;20230;-60
2024/01/28 09:07:03;;;;;;;5.27;2.50;;;;;;;1.89;99.25;99756.84;6166758;28;20198;-60
2024/01/28 09:10:06;;;;;;;7.80;2.80;;;;;;;2.12;92.60;99752.19;6161397;28;20260;-61
2024/01/28 09:13:09;;;;;;;5.70;2.60;;;;;;;2.38;90.19;99752.47;6164189;28;20198;-61
2024/01/28 09:16:11;;;;;;;8.23;2.47;;;;;;;2.67;88.71;99749.00;6154775;28;20210;-59
2024/01/28 09:19:13;;;;;;;11.87;2.90;;;;;;;3.01;84.59;99744.09;6161386;28;20203;-61
2024/01/28 09:22:15;;;;;;;9.87;2.97;;;;;;;3.16;81.75;99747.94;6167683;28;20202;-61
2024/01/28 09:25:18;;;;;;;5.43;2.70;;;;;;;3.41;79.86;99748.28;6163758;28;20202;-58
2024/01/28 09:28:20;;;;;;;11.07;2.60;;;;;;;3.47;80.06;99768.75;6159013;28;20667;-61
2024/01/28 09:31:22;;;;;;;9.17;3.23;;;;;;;3.73;77.62;99777.66;6156512;28;21000;-61
2024/01/28 09:34:24;;;;;;;6.87;3.47;;;;;;;3.99;75.67;99777.81;6156940;28;20256;-62
2024/01/28 09:37:27;;;;;;;8.73;2.83;;;;;;;4.14;76.64;99775.50;6139360;28;20568;-61
2024/01/28 09:40:29;;;;;;;7.77;2.00;;;;;;;4.40;76.19;99779.06;6142729;28;20222;-60
2024/01/28 09:43:31;;;;;;;7.60;2.43;;;;;;;4.21;73.74;99747.53;6157862;28;20202;-61
2024/01/28 09:46:33;;;;;;;6.60;2.30;;;;;;;4.39;73.67;99766.00;6163411;28;20320;-61
2024/01/28 09:49:39;;;;;;;5.10;2.00;;;;;;;4.44;73.25;99768.22;6165753;28;20325;-62
2024/01/28 09:52:42;;;;;;;6.90;2.50;;;;;;;4.67;72.39;99766.75;6162189;28;20190;-61
2024/01/28 09:55:44;;;;;;;8.17;2.00;;;;;;;4.98;69.24;99771.63;6162974;28;20222;-61
2024/01/28 09:58:47;;;;;;;6.00;2.57;;;;;;;5.23;68.66;99768.16;6159941;28;20202;-59
2024/01/28 10:01:52;;;;;;;7.07;2.13;;;;;;;5.21;68.65;99759.53;6159639;28;20195;-59
2024/01/28 10:04:56;;;;;;;6.77;2.53;;;;;;;5.35;65.58;99753.66;6141064;28;20199;-60
2024/01/28 10:08:03;;;;;;;6.50;2.00;;;;;;;5.38;65.58;99758.66;6161711;28;20205;-60
2024/01/28 10:11:09;;;;;;;4.20;2.10;;;;;;;5.31;65.15;99747.03;6156440;28;20200;-60
2024/01/28 10:14:12;;;;;;;4.53;2.13;;;;;;;5.51;64.32;99745.00;6153758;28;20195;-60
2024/01/28 10:17:14;;;;;;;3.97;1.40;;;;;;;5.67;64.24;99747.72;6153742;28;20200;-60
2024/01/28 10:20:19;;;;;;;4.40;1.90;;;;;;;5.76;65.73;99747.72;6160363;28;20195;-60
2024/01/28 10:23:21;;;;;;;5.43;1.80;;;;;;;5.74;63.57;99739.97;6160617;28;20259;-60
2024/01/28 10:26:24;;;;;;;5.30;1.90;;;;;;;6.06;60.03;99741.94;6152260;28;20644;-60
2024/01/28 10:29:27;;;;;;;5.27;1.97;;;;;;;5.97;61.32;99729.66;6162300;28;20279;-60
2024/01/28 10:32:30;;;;;;;6.50;1.50;;;;;;;6.00;61.98;99725.84;6162872;28;20197;-60
2024/01/28 10:35:32;;;;;;;7.70;1.87;;;;;;;6.20;58.60;99724.56;6152629;28;20216;-61
2024/01/28 10:38:35;;;;;;;4.87;1.43;;;;;;;6.17;60.71;99716.97;6154706;28;20207;-60
2024/01/28 10:41:42;;;;;;;3.43;1.50;;;;;;;6.12;60.22;99719.28;6166616;28;20234;-60
2024/01/28 10:44:47;;;;;;;3.37;1.60;;;;;;;6.20;58.90;99716.63;6152928;28;20245;-60
2024/01/28 10:47:55;;;;;;;3.43;1.90;;;;;;;6.17;58.37;99709.84;6154502;28;20290;-59
2024/01/28 10:51:00;;;;;;;7.30;1.77;;;;;;;6.34;59.33;99713.34;6162560;28;20299;-59
2024/01/28 10:54:09;;;;;;;6.93;1.60;;;;;;;6.38;58.69;99712.00;6163097;28;20195;-59
2024/01/28 10:57:12;;;;;;;2.97;1.60;;;;;;;6.52;56.70;99705.25;6157457;28;20192;-59
2024/01/28 11:00:20;;;;;;;5.10;1.43;;;;;;;6.81;54.18;99699.44;6160666;28;20650;-60
2024/01/28 11:03:23;;;;;;;4.87;1.80;;;;;;;6.65;54.94;99705.56;6164460;28;20208;-58
2024/01/28 11:06:32;;;;;;;3.80;1.20;;;;;;;6.73;54.37;99712.69;6138779;28;20654;-59
2024/01/28 11:09:35;;;;;;;8.33;1.53;;;;;;;6.81;53.29;99696.78;6144630;28;20205;-60
2024/01/28 11:12:39;;;;;;;3.37;1.20;;;;;;;6.91;52.74;99704.56;6155611;28;20207;-59
2024/01/28 11:15:42;;;;;;;3.67;1.47;;;;;;;6.84;53.76;99712.31;6162712;28;20217;-59
2024/01/28 11:18:58;;;;;;;3.03;1.20;;;;;;;6.77;54.13;99691.97;6163400;28;20202;-58
2024/01/28 11:22:02;;;;;;;3.83;1.43;;;;;;;7.05;50.52;99701.22;6160962;28;20289;-59
2024/01/28 11:25:09;;;;;;;4.33;1.23;;;;;;;7.13;52.41;99703.00;6162290;28;20619;-59
2024/01/28 11:28:14;;;;;;;4.80;0.90;;;;;;;7.24;51.19;99686.72;6164382;28;20189;-59
2024/01/28 11:31:34;;;;;;;3.53;1.50;;;;;;;7.24;50.23;99679.63;6166174;28;20216;-59
2024/01/28 11:34:36;;;;;;;2.37;1.00;;;;;;;7.24;50.70;99676.13;6157612;28;20296;-60
2024/01/28 11:38:03;;;;;;;3.03;0.93;;;;;;;7.19;48.03;99670.50;6164819;28;20195;-59
2024/01/28 11:41:06;;;;;;;1.83;1.07;;;;;;;7.17;48.79;99670.69;6161517;28;20272;-59
2024/01/28 11:44:09;;;;;;;1.87;0.80;;;;;;;7.25;49.93;99667.19;6162970;28;20186;-59
2024/01/28 11:47:17;;;;;;;2.40;1.03;;;;;;;7.22;49.62;99663.03;6162151;28;20208;-58
2024/01/28 11:50:19;;;;;;;5.10;1.20;;;;;;;7.07;53.43;99658.63;6161368;28;20690;-60
2024/01/28 11:53:22;;;;;;;2.33;1.10;;;;;;;7.08;50.43;99657.63;6165518;28;20762;-58
2024/01/28 11:56:24;;;;;;;2.13;1.13;;;;;;;7.37;48.79;99643.78;6163034;28;20237;-60
2024/01/28 11:59:26;;;;;;;3.57;1.43;;;;;;;7.31;49.81;99649.78;6142521;28;20213;-60
2024/01/28 12:02:28;;;;;;;1.37;1.00;;;;;;;7.11;48.78;99634.28;6143288;28;20194;-59
2024/01/28 12:05:31;;;;;;;4.30;1.10;;;;;;;7.35;47.01;99645.78;6162388;28;20564;-59
2024/01/28 12:08:40;;;;;;;6.30;1.00;;;;;;;7.52;46.68;99631.44;6158747;28;20198;-59
2024/01/28 12:11:43;;;;;;;2.57;1.03;;;;;;;7.50;47.78;99634.25;6158667;28;20689;-60
2024/01/28 12:14:45;;;;;;;3.23;1.13;;;;;;;7.68;45.92;99631.31;6142904;28;20214;-60
2024/01/28 12:17:48;;;;;;;4.87;0.70;;;;;;;7.53;45.60;99630.41;6166579;28;20204;-58
2024/01/28 12:20:51;;;;;;;1.80;0.97;;;;;;;7.47;48.03;99639.91;6164793;28;20279;-60
2024/01/28 12:23:59;;;;;;;1.80;0.90;;;;;;;7.30;48.54;99629.56;6163903;28;20230;-60
2024/01/28 12:27:01;;;;;;;3.33;0.93;;;;;;;7.34;47.35;99631.69;6150563;28;20195;-60
2024/01/28 12:30:05;;;;;;;4.63;1.10;;;;;;;7.55;47.17;99625.78;6146997;28;20197;-60
2024/01/28 12:33:07;;;;;;;3.47;1.10;;;;;;;7.49;48.99;99622.00;6149625;28;20197;-60
2024/01/28 12:36:09;;;;;;;2.80;0.80;;;;;;;7.43;49.59;99621.84;6144187;28;20223;-60
2024/01/28 12:39:12;;;;;;;1.97;0.73;;;;;;;7.31;51.26;99602.88;6165984;28;20301;-59
2024/01/28 12:42:16;;;;;;;4.37;1.43;;;;;;;7.44;48.98;99613.75;6156419;28;20671;-60
2024/01/28 12:45:18;;;;;;;5.20;2.70;;;;;;;7.58;52.42;99614.00;6161867;28;20313;-59
2024/01/28 12:48:20;;;;;;;9.50;2.73;;;;;;;7.37;53.56;99596.06;6152757;28;20660;-60
2024/01/28 12:51:23;;;;;;;5.77;2.57;;;;;;;7.39;54.65;99624.06;6166227;28;20199;-59
2024/01/28 12:54:25;;;;;;;7.10;2.50;;;;;;;7.23;55.25;99622.28;6164784;28;20206;-60
2024/01/28 12:57:28;;;;;;;10.67;3.30;;;;;;;7.11;55.73;99621.03;6156021;28;20219;-59
2024/01/28 13:00:30;;;;;;;6.50;2.00;;;;;;;7.02;58.32;99615.91;6159511;28;20344;-60
2024/01/28 13:03:32;;;;;;;7.33;2.63;;;;;;;6.70;60.58;99612.38;6162126;28;20234;-59
2024/01/28 13:06:34;;;;;;;5.63;2.60;;;;;;;6.63;57.87;99617.50;6159580;28;20903;-59
2024/01/28 13:09:37;;;;;;;6.23;2.47;;;;;;;6.68;58.40;99611.72;6137623;28;20202;-59
2024/01/28 13:12:41;;;;;;;5.90;2.70;;;;;;;6.59;58.80;99612.72;6158262;28;20233;-59
2024/01/28 13:15:44;;;;;;;6.77;2.40;;;;;;;6.61;59.07;99608.91;6152805;28;20675;-59
2024/01/28 13:18:46;;;;;;;9.67;3.00;;;;;;;6.31;61.76;99601.69;6155866;28;20453;-59
2024/01/28 13:21:49;;;;;;;7.03;2.60;;;;;;;6.46;60.13;99600.84;6158772;28;20727;-58
2024/01/28 13:24:53;;;;;;;6.90;2.73;;;;;;;6.43;61.88;99601.16;6157633;28;20193;-59
2024/01/28 13:27:56;;;;;;;7.50;2.83;;;;;;;6.09;63.50;99598.69;6165895;28;20314;-59
2024/01/28 13:30:58;;;;;;;7.73;2.33;;;;;;;6.04;63.37;99605.50;6163822;28;20205;-59
2024/01/28 13:34:00;;;;;;;6.53;2.97;;;;;;;6.06;62.43;99590.25;6155893;28;20612;-59
2024/01/28 13:37:03;;;;;;;8.87;2.87;;;;;;;6.10;62.58;99588.94;6167429;28;20279;-60
2024/01/28 13:40:06;;;;;;;9.03;2.77;;;;;;;6.20;64.47;99616.06;6163645;28;20291;-60
2024/01/28 13:43:08;;;;;;;8.80;2.87;;;;;;;6.18;62.77;99618.06;6159779;28;20916;-59
2024/01/28 13:46:11;;;;;;;10.20;3.57;;;;;;;6.08;63.11;99601.53;6164118;28;20309;-58
2024/01/28 13:49:14;;;;;;;10.97;3.60;;;;;;;6.10;63.14;99604.81;6148467;28;20233;-59
2024/01/28 13:52:17;;;;;;;8.23;3.30;;;;;;;6.03;63.11;99587.97;6151925;28;20194;-60
2024/01/28 13:55:19;;;;;;;9.67;3.30;;;;;;;6.03;63.74;99604.66;6154406;28;20663;-59
2024/01/28 13:58:21;;;;;;;12.53;2.83;;;;;;;5.78;64.80;99590.56;6167215;28;20199;-59
2024/01/28 14:01:25;;;;;;;8.80;2.83;;;;;;;5.92;64.09;99595.25;6157938;28;20193;-59
2024/01/28 14:04:28;;;;;;;9.60;3.33;;;;;;;5.88;64.72;99591.22;6148143;28;20205;-58
2024/01/28 14:07:31;;;;;;;10.87;3.50;;;;;;;5.86;64.16;99595.88;6161668;28;20203;-59
2024/01/28 14:10:33;;;;;;;9.40;3.23;;;;;;;5.74;64.94;99599.81;6164345;28;20205;-59
2024/01/28 14:13:35;;;;;;;8.13;2.67;;;;;;;5.53;67.55;99596.81;6161194;28;20349;-60
2024/01/28 14:16:37;;;;;;;5.07;2.53;;;;;;;5.26;69.50;99596.06;6162185;28;20208;-59
2024/01/28 14:19:40;;;;;;;12.40;3.37;;;;;;;5.28;68.43;99591.47;6162044;28;20203;-58
2024/01/28 14:22:42;;;;;;;9.33;3.27;;;;;;;5.05;70.90;99590.38;6131515;28;20688;-59